createdAt,value
2022-09-19T00:00:38.851Z,1.60
2022-09-19T00:03:34.265Z,0.80
2022-09-19T00:06:06.678Z,1.40
2022-09-19T00:08:43.547Z,2.80
2022-09-19T00:11:21.317Z,1.30
2022-09-19T00:13:55.674Z,2.30
2022-09-19T00:16:41.101Z,1.70
2022-09-19T00:19:20.169Z,2.10
2022-09-19T00:22:01.757Z,1.60
2022-09-19T00:24:51.066Z,1.70
2022-09-19T00:27:42.429Z,1.90
2022-09-19T00:30:41.100Z,1.00
2022-09-19T00:33:16.784Z,1.20
2022-09-19T00:35:56.587Z,1.00
2022-09-19T00:38:32.568Z,1.30
2022-09-19T00:41:27.717Z,1.70
2022-09-19T00:44:54.268Z,2.60
2022-09-19T00:47:36.580Z,1.30
2022-09-19T00:50:23.018Z,0.90
2022-09-19T00:53:12.122Z,2.10
2022-09-19T00:55:50.224Z,1.30
2022-09-19T00:58:32.621Z,2.30
2022-09-19T01:01:07.846Z,2.80
2022-09-19T01:03:47.534Z,1.90
2022-09-19T01:06:51.967Z,3.20
2022-09-19T01:09:42.969Z,1.80
2022-09-19T01:12:29.258Z,1.90
2022-09-19T01:15:34.297Z,1.50
2022-09-19T01:18:11.613Z,1.00
2022-09-19T01:21:25.190Z,1.60
2022-09-19T01:24:27.075Z,0.80
2022-09-19T01:27:25.375Z,2.40
2022-09-19T01:30:09.643Z,1.60
2022-09-19T01:32:57.519Z,2.50
2022-09-19T01:35:43.497Z,2.00
2022-09-19T01:38:29.227Z,1.80
2022-09-19T01:41:13.898Z,0.90
2022-09-19T01:43:57.183Z,1.80
2022-09-19T01:46:42.414Z,3.20
2022-09-19T01:49:27.681Z,0.90
2022-09-19T01:52:31.626Z,1.30
2022-09-19T01:55:19.119Z,1.00
2022-09-19T01:58:08.817Z,0.90
2022-09-19T02:01:02.142Z,1.40
2022-09-19T02:03:47.287Z,2.20
2022-09-19T02:06:38.845Z,2.00
2022-09-19T02:09:24.717Z,3.40
2022-09-19T02:12:05.398Z,1.30
2022-09-19T02:15:01.317Z,1.80
2022-09-19T02:17:57.489Z,2.50
2022-09-19T02:20:46.315Z,1.60
2022-09-19T02:23:48.305Z,1.80
2022-09-19T02:26:31.859Z,3.00
2022-09-19T02:29:21.749Z,1.50
2022-09-19T02:32:13.892Z,1.10
2022-09-19T02:34:52.408Z,2.50
2022-09-19T02:37:43.520Z,1.90
2022-09-19T02:40:29.414Z,3.20
2022-09-19T02:43:15.823Z,1.20
2022-09-19T02:46:15.844Z,1.70
2022-09-19T02:49:02.527Z,2.90
2022-09-19T02:51:47.151Z,1.50
2022-09-19T02:54:43.358Z,2.00
2022-09-19T02:57:23.425Z,2.30
2022-09-19T03:00:10.234Z,1.40
2022-09-19T03:02:48.833Z,1.30
2022-09-19T03:05:41.830Z,3.50
2022-09-19T03:08:37.561Z,2.30
2022-09-19T03:11:21.705Z,1.70
2022-09-19T03:14:14.430Z,1.60
2022-09-19T03:17:08.683Z,1.80
2022-09-19T03:19:52.976Z,1.30
2022-09-19T03:22:39.011Z,1.80
2022-09-19T03:25:14.857Z,0.70
2022-09-19T03:28:07.966Z,1.20
2022-09-19T03:30:43.304Z,1.00
2022-09-19T03:33:20.818Z,3.10
2022-09-19T03:35:59.152Z,2.00
2022-09-19T03:38:51.930Z,1.40
2022-09-19T03:41:28.404Z,1.60
2022-09-19T03:44:06.981Z,3.80
2022-09-19T03:46:48.183Z,2.40
2022-09-19T03:49:23.458Z,1.30
2022-09-19T03:54:42.793Z,1.20
2022-09-19T03:57:17.009Z,1.70
2022-09-19T03:59:53.719Z,3.40
2022-09-19T04:02:38.563Z,2.70
2022-09-19T04:05:21.052Z,2.70
2022-09-19T04:08:13.610Z,2.60
2022-09-19T04:10:57.855Z,1.60
2022-09-19T04:13:41.082Z,1.30
2022-09-19T04:16:20.403Z,1.70
2022-09-19T04:19:02.963Z,1.40
2022-09-19T04:21:55.274Z,2.60
2022-09-19T04:24:52.412Z,2.00
2022-09-19T04:27:46.560Z,1.80
2022-09-19T04:30:25.515Z,2.90
2022-09-19T04:33:16.532Z,1.50
2022-09-19T04:36:01.031Z,1.30
2022-09-19T04:38:41.883Z,1.40
2022-09-19T04:41:22.123Z,1.40
2022-09-19T04:44:00.038Z,3.30
2022-09-19T04:46:58.695Z,2.70
2022-09-19T04:49:40.855Z,3.10
2022-09-19T04:52:19.611Z,1.60
2022-09-19T04:54:55.604Z,1.30
2022-09-19T04:57:30.921Z,9.90
2022-09-19T05:00:15.642Z,2.40
2022-09-19T05:02:58.056Z,1.80
2022-09-19T05:05:38.852Z,5.10
2022-09-19T05:08:27.424Z,1.50
2022-09-19T05:11:23.136Z,5.00
2022-09-19T05:14:10.309Z,2.60
2022-09-19T05:16:57.550Z,1.50
2022-09-19T05:19:40.710Z,3.00
2022-09-19T05:22:15.965Z,2.70
2022-09-19T05:24:51.534Z,1.90
2022-09-19T05:27:43.684Z,2.40
2022-09-19T05:30:28.843Z,2.10
2022-09-19T05:33:05.195Z,1.80
2022-09-19T05:36:01.247Z,2.70
2022-09-19T05:39:05.841Z,2.50
2022-09-19T05:42:02.589Z,1.70
2022-09-19T05:44:48.135Z,2.20
2022-09-19T05:47:30.363Z,2.90
2022-09-19T05:50:16.848Z,2.70
2022-09-19T05:53:12.004Z,2.40
2022-09-19T05:55:48.640Z,1.50
2022-09-19T05:58:36.516Z,3.70
2022-09-19T06:01:21.406Z,2.10
2022-09-19T06:04:08.848Z,3.50
2022-09-19T06:06:47.792Z,16.40
2022-09-19T06:09:39.855Z,3.90
2022-09-19T06:12:20.754Z,2.50
2022-09-19T06:14:56.298Z,2.70
2022-09-19T06:17:31.743Z,2.80
2022-09-19T06:20:22.802Z,2.50
2022-09-19T06:23:18.010Z,2.50
2022-09-19T06:26:10.655Z,3.70
2022-09-19T06:28:47.667Z,4.30
2022-09-19T06:31:40.606Z,4.10
2022-09-19T06:34:48.359Z,2.40
2022-09-19T06:37:34.469Z,1.40
2022-09-19T06:40:19.575Z,2.30
2022-09-19T06:43:12.379Z,5.10
2022-09-19T06:46:16.797Z,4.70
2022-09-19T06:49:28.478Z,3.30
2022-09-19T06:52:20.709Z,2.50
2022-09-19T06:54:56.083Z,3.90
2022-09-19T06:57:37.750Z,2.10
2022-09-19T07:00:14.219Z,3.30
2022-09-19T07:02:50.318Z,2.90
2022-09-19T07:05:28.064Z,2.40
2022-09-19T07:08:19.995Z,3.20
2022-09-19T07:10:59.082Z,2.40
2022-09-19T07:13:35.412Z,4.40
2022-09-19T07:16:19.968Z,4.60
2022-09-19T07:19:12.618Z,3.50
2022-09-19T07:21:57.547Z,2.10
2022-09-19T07:24:50.795Z,3.40
2022-09-19T07:27:45.956Z,2.20
2022-09-19T07:30:19.419Z,1.50
2022-09-19T07:33:08.238Z,1.80
2022-09-19T07:35:45.144Z,2.30
2022-09-19T07:38:29.362Z,2.60
2022-09-19T07:41:24.965Z,3.10
2022-09-19T07:44:17.709Z,2.80
2022-09-19T07:47:26.709Z,2.90
2022-09-19T07:50:22.106Z,2.30
2022-09-19T07:53:14.887Z,1.50
2022-09-19T07:56:07.533Z,1.20
2022-09-19T07:58:49.004Z,1.90
2022-09-19T08:01:30.660Z,1.80
2022-09-19T08:04:19.769Z,2.40
2022-09-19T08:07:13.190Z,1.70
2022-09-19T08:09:49.874Z,1.70
2022-09-19T08:12:33.156Z,1.30
2022-09-19T08:15:11.375Z,1.50
2022-09-19T08:18:01.864Z,3.40
2022-09-19T08:20:38.982Z,2.80
2022-09-19T08:23:22.355Z,2.40
2022-09-19T08:26:02.614Z,1.70
2022-09-19T08:28:35.906Z,1.80
2022-09-19T08:31:08.574Z,1.30
2022-09-19T08:33:45.965Z,1.40
2022-09-19T08:36:40.230Z,2.20
2022-09-19T08:39:26.248Z,1.70
2022-09-19T08:42:10.576Z,2.80
2022-09-19T08:45:04.782Z,2.00
2022-09-19T08:47:49.583Z,2.60
2022-09-19T08:50:32.082Z,1.80
2022-09-19T08:53:15.101Z,3.50
2022-09-19T08:56:08.231Z,1.80
2022-09-19T08:59:03.883Z,2.40
2022-09-19T09:02:06.495Z,2.90
2022-09-19T09:05:07.900Z,1.70
2022-09-19T09:07:52.781Z,2.20
2022-09-19T09:10:55.967Z,2.80
2022-09-19T09:13:59.812Z,2.20
2022-09-19T09:16:53.832Z,2.50
2022-09-19T09:19:55.645Z,2.90
2022-09-19T09:22:35.759Z,1.80
2022-09-19T09:25:37.072Z,3.70
2022-09-19T09:28:17.238Z,2.90
2022-09-19T09:31:08.934Z,3.20
2022-09-19T09:33:57.393Z,2.60
2022-09-19T09:36:51.702Z,2.70
2022-09-19T09:39:33.847Z,1.70
2022-09-19T09:42:19.460Z,1.90
2022-09-19T09:45:07.565Z,2.30
2022-09-19T09:47:49.941Z,1.90
2022-09-19T09:50:49.719Z,1.40
2022-09-19T09:53:34.047Z,3.10
2022-09-19T09:56:17.756Z,2.30
2022-09-19T09:59:39.004Z,1.60
2022-09-19T10:02:41.818Z,2.10
2022-09-19T10:08:19.769Z,2.00
2022-09-19T10:14:29.745Z,3.70
2022-09-19T10:17:13.827Z,3.20
2022-09-19T10:20:13.693Z,4.00
2022-09-19T10:22:46.268Z,3.10
2022-09-19T10:25:22.320Z,2.60
2022-09-19T10:28:19.630Z,4.20
2022-09-19T10:31:25.842Z,3.70
2022-09-19T10:34:06.759Z,2.60
2022-09-19T10:36:49.898Z,1.90
2022-09-19T10:39:30.342Z,3.10
2022-09-19T10:42:06.245Z,3.40
2022-09-19T10:44:41.756Z,2.50
2022-09-19T10:47:16.271Z,2.30
2022-09-19T10:50:01.622Z,2.80
2022-09-19T10:53:01.454Z,4.30
2022-09-19T10:55:45.358Z,3.30
2022-09-19T11:01:26.300Z,2.40
2022-09-19T11:04:26.954Z,2.80
2022-09-19T11:07:02.767Z,4.70
2022-09-19T11:09:39.012Z,3.30
2022-09-19T11:12:19.194Z,3.90
2022-09-19T11:14:56.635Z,2.30
2022-09-19T11:17:59.827Z,2.30
2022-09-19T11:20:58.599Z,3.60
2022-09-19T11:24:13.094Z,3.40
2022-09-19T11:27:09.799Z,2.80
2022-09-19T11:30:03.352Z,3.70
2022-09-19T11:33:06.428Z,2.00
2022-09-19T11:36:09.175Z,3.40
2022-09-19T11:42:05.520Z,3.30
2022-09-19T11:44:53.615Z,2.40
2022-09-19T11:47:52.188Z,3.50
2022-09-19T11:51:03.223Z,2.00
2022-09-19T11:54:20.243Z,2.10
2022-09-19T11:57:23.428Z,1.90
2022-09-19T12:00:06.673Z,3.30
2022-09-19T12:03:28.697Z,7.40
2022-09-19T12:06:38.200Z,6.00
2022-09-19T12:09:28.493Z,3.30
2022-09-19T12:14:52.106Z,3.80
2022-09-19T12:17:40.376Z,3.20
2022-09-19T12:20:24.703Z,2.80
2022-09-19T12:23:21.510Z,4.70
2022-09-19T12:25:58.423Z,4.00
2022-09-19T12:28:50.369Z,2.40
2022-09-19T12:31:38.220Z,2.80
2022-09-19T12:34:40.910Z,3.00
2022-09-19T12:37:41.292Z,2.40
2022-09-19T12:40:43.674Z,3.00
2022-09-19T12:43:40.072Z,4.40
2022-09-19T12:46:36.653Z,4.80
2022-09-19T12:49:22.509Z,4.20
2022-09-19T12:52:13.931Z,2.90
2022-09-19T12:54:51.424Z,3.80
2022-09-19T12:57:37.687Z,2.80
2022-09-19T13:00:15.371Z,4.90
2022-09-19T13:02:53.267Z,3.50
2022-09-19T13:05:50.254Z,4.60
2022-09-19T13:08:49.501Z,3.40
2022-09-19T13:11:32.076Z,2.40
2022-09-19T13:14:15.694Z,3.40
2022-09-19T13:17:06.338Z,3.00
2022-09-19T13:20:00.941Z,5.30
2022-09-19T13:23:12.781Z,3.80
2022-09-19T13:25:49.438Z,3.80
2022-09-19T13:28:35.412Z,1.30
2022-09-19T13:31:22.123Z,1.80
2022-09-19T13:34:40.495Z,7.70
2022-09-19T13:37:47.426Z,2.70
2022-09-19T13:40:40.635Z,2.70
2022-09-19T13:43:36.602Z,2.00
2022-09-19T13:46:35.859Z,4.10
2022-09-19T13:49:23.126Z,3.90
2022-09-19T13:52:02.840Z,1.50
2022-09-19T13:55:08.250Z,1.80
2022-09-19T13:57:51.875Z,2.30
2022-09-19T14:00:38.529Z,2.70
2022-09-19T14:03:29.654Z,3.10
2022-09-19T14:06:28.995Z,2.30
2022-09-19T14:12:54.428Z,4.90
2022-09-19T14:16:19.993Z,1.90
2022-09-19T14:18:58.000Z,1.10
2022-09-19T14:22:00.999Z,1.40
2022-09-19T14:25:03.930Z,2.20
2022-09-19T14:28:21.107Z,2.50
2022-09-19T14:31:35.849Z,1.20
2022-09-19T14:34:40.296Z,1.90
2022-09-19T14:37:44.566Z,1.50
2022-09-19T14:40:34.734Z,1.60
2022-09-19T14:43:26.809Z,1.10
2022-09-19T14:46:27.403Z,1.10
2022-09-19T14:49:18.652Z,3.70
2022-09-19T14:52:01.566Z,0.90
2022-09-19T14:54:45.414Z,0.80
2022-09-19T14:57:27.285Z,6.50
2022-09-19T15:00:21.986Z,1.10
2022-09-19T15:02:54.801Z,1.30
2022-09-19T15:05:33.315Z,1.00
2022-09-19T15:08:25.619Z,1.80
2022-09-19T15:11:04.345Z,1.20
2022-09-19T15:13:47.098Z,1.80
2022-09-19T15:16:25.030Z,1.30
2022-09-19T15:19:12.737Z,2.00
2022-09-19T15:21:58.630Z,1.10
2022-09-19T15:24:33.830Z,4.20
2022-09-19T15:27:06.210Z,2.30
2022-09-19T15:29:41.748Z,1.50
2022-09-19T15:32:29.921Z,3.10
2022-09-19T15:35:08.836Z,4.90
2022-09-19T15:37:48.918Z,1.20
2022-09-19T15:40:35.743Z,2.80
2022-09-19T15:43:12.783Z,1.40
2022-09-19T15:46:00.308Z,1.30
2022-09-19T15:48:46.206Z,2.90
2022-09-19T15:51:34.563Z,1.60
2022-09-19T15:54:29.393Z,2.20
2022-09-19T15:57:27.663Z,3.10
2022-09-19T16:00:06.978Z,2.30
2022-09-19T16:02:53.814Z,2.60
2022-09-19T16:05:32.327Z,2.40
2022-09-19T16:08:43.887Z,5.10
2022-09-19T16:11:32.959Z,5.10
2022-09-19T16:14:19.361Z,2.60
2022-09-19T16:17:04.600Z,4.00
2022-09-19T16:19:48.338Z,3.10
2022-09-19T16:22:32.515Z,6.70
2022-09-19T16:25:16.777Z,4.80
2022-09-19T16:27:55.539Z,3.70
2022-09-19T16:30:33.759Z,3.40
2022-09-19T16:33:15.612Z,4.50
2022-09-19T16:36:02.426Z,3.60
2022-09-19T16:38:38.244Z,4.30
2022-09-19T16:41:36.134Z,3.10
2022-09-19T16:44:29.902Z,8.50
2022-09-19T16:47:16.890Z,5.20
2022-09-19T16:49:54.396Z,5.80
2022-09-19T16:52:42.499Z,8.10
2022-09-19T16:55:27.169Z,4.10
2022-09-19T16:58:13.023Z,3.50
2022-09-19T17:01:07.143Z,12.80
2022-09-19T17:04:00.854Z,11.60
2022-09-19T17:06:44.239Z,6.80
2022-09-19T17:09:22.669Z,6.50
2022-09-19T17:12:15.623Z,4.40
2022-09-19T17:14:57.699Z,3.70
2022-09-19T17:17:35.906Z,5.90
2022-09-19T17:20:14.209Z,4.30
2022-09-19T17:22:51.746Z,5.80
2022-09-19T17:25:50.489Z,3.40
2022-09-19T17:28:44.288Z,5.60
2022-09-19T17:31:30.182Z,4.40
2022-09-19T17:34:17.955Z,3.60
2022-09-19T17:37:07.669Z,3.80
2022-09-19T17:40:03.457Z,3.90
2022-09-19T17:42:41.752Z,5.20
2022-09-19T17:45:28.077Z,4.80
2022-09-19T17:48:26.056Z,4.40
2022-09-19T17:51:24.229Z,5.40
2022-09-19T17:54:28.422Z,5.30
2022-09-19T17:57:14.833Z,6.90
2022-09-19T18:00:01.349Z,6.80
2022-09-19T18:03:05.678Z,5.80
2022-09-19T18:06:01.651Z,5.60
2022-09-19T18:08:42.844Z,7.00
2022-09-19T18:11:29.387Z,5.10
2022-09-19T18:14:17.063Z,7.60
2022-09-19T18:17:01.122Z,5.50
2022-09-19T18:19:53.846Z,7.30
2022-09-19T18:22:46.241Z,9.70
2022-09-19T18:25:21.760Z,12.50
2022-09-19T18:28:09.933Z,10.00
2022-09-19T18:30:46.836Z,9.70
2022-09-19T18:33:35.379Z,8.80
2022-09-19T18:36:19.069Z,8.30
2022-09-19T18:38:55.928Z,7.50
2022-09-19T18:41:45.849Z,5.80
2022-09-19T18:50:11.307Z,9.70
2022-09-19T18:52:51.276Z,6.40
2022-09-19T18:55:26.795Z,8.60
2022-09-19T19:01:21.813Z,7.50
2022-09-19T19:04:08.613Z,8.10
2022-09-19T19:06:49.026Z,6.80
2022-09-19T19:09:31.346Z,8.80
2022-09-19T19:15:02.073Z,9.40
2022-09-19T19:17:39.678Z,7.00
2022-09-19T19:20:17.139Z,6.90
2022-09-19T19:23:01.566Z,6.30
2022-09-19T19:25:39.830Z,7.00
2022-09-19T19:28:22.572Z,6.50
2022-09-19T19:31:07.459Z,4.70
2022-09-19T19:33:44.604Z,7.20
2022-09-19T19:36:31.601Z,7.50
2022-09-19T19:39:14.618Z,7.70
2022-09-19T19:41:50.299Z,5.80
2022-09-19T19:44:33.765Z,6.50
2022-09-19T19:47:06.240Z,8.60
2022-09-19T19:49:52.489Z,9.00
2022-09-19T19:52:25.082Z,6.90
2022-09-19T19:55:17.549Z,6.50
2022-09-19T19:58:04.113Z,5.90
2022-09-19T20:00:41.383Z,4.80
2022-09-19T20:03:24.539Z,7.20
2022-09-19T20:05:59.865Z,5.90
2022-09-19T20:08:37.090Z,8.80
2022-09-19T20:11:30.167Z,6.70
2022-09-19T20:14:21.258Z,6.90
2022-09-19T20:17:01.675Z,5.60
2022-09-19T20:19:35.988Z,6.30
2022-09-19T20:22:10.949Z,7.00
2022-09-19T20:24:52.348Z,6.90
2022-09-19T20:27:35.816Z,7.10
2022-09-19T20:30:18.776Z,5.50
2022-09-19T20:32:58.738Z,5.70
2022-09-19T20:35:42.241Z,4.30
2022-09-19T20:38:27.364Z,5.20
2022-09-19T20:41:12.154Z,4.30
2022-09-19T20:46:41.216Z,4.40
2022-09-19T20:49:16.365Z,5.50
2022-09-19T20:52:07.542Z,5.30
2022-09-19T20:54:51.042Z,7.40
2022-09-19T20:57:25.444Z,6.50
2022-09-19T21:00:13.267Z,4.40
2022-09-19T21:02:52.489Z,4.20
2022-09-19T21:05:35.854Z,4.30
2022-09-19T21:08:16.935Z,4.10
2022-09-19T21:11:03.886Z,3.40
2022-09-19T21:13:53.631Z,4.30
2022-09-19T21:16:46.045Z,4.70
2022-09-19T21:19:29.293Z,5.10
2022-09-19T21:22:21.365Z,4.70
2022-09-19T21:27:47.251Z,4.70
2022-09-19T21:30:25.092Z,4.50
2022-09-19T21:33:06.437Z,4.90
2022-09-19T21:35:49.769Z,7.00
2022-09-19T21:38:24.089Z,4.80
2022-09-19T21:41:07.154Z,8.20
2022-09-19T21:43:45.572Z,4.80
2022-09-19T21:46:30.689Z,6.10
2022-09-19T21:49:08.220Z,3.90
2022-09-19T21:51:45.230Z,6.90
2022-09-19T21:56:56.586Z,3.10
2022-09-19T21:59:31.903Z,4.00
2022-09-19T22:02:15.782Z,4.50
2022-09-19T22:04:51.033Z,4.00
2022-09-19T22:07:34.369Z,2.50
2022-09-19T22:10:12.134Z,3.90
2022-09-19T22:12:57.091Z,3.80
2022-09-19T22:15:34.378Z,4.00
2022-09-19T22:18:20.591Z,3.70
2022-09-19T22:21:13.254Z,3.90
2022-09-19T22:24:06.138Z,5.10
2022-09-19T22:26:51.252Z,3.80
2022-09-19T22:29:28.848Z,5.70
2022-09-19T22:32:20.781Z,3.60
2022-09-19T22:35:03.809Z,3.20
2022-09-19T22:38:34.909Z,3.40
2022-09-19T22:41:05.016Z,3.30
2022-09-19T22:43:34.671Z,3.70
2022-09-19T22:46:07.465Z,3.30
2022-09-19T22:48:39.936Z,3.80
2022-09-19T22:51:09.388Z,3.70
2022-09-19T22:53:38.522Z,3.80
2022-09-19T22:56:11.088Z,4.90
2022-09-19T22:58:39.914Z,4.80
2022-09-19T23:01:11.361Z,4.40
2022-09-19T23:03:39.977Z,4.80
2022-09-19T23:06:13.861Z,3.30
2022-09-19T23:08:45.528Z,5.90
2022-09-19T23:13:48.484Z,3.90
2022-09-19T23:16:19.944Z,5.40
2022-09-19T23:18:52.960Z,4.40
2022-09-19T23:21:23.216Z,3.70
2022-09-19T23:23:52.576Z,2.90
2022-09-19T23:26:21.423Z,4.10
2022-09-19T23:28:49.898Z,3.00
2022-09-19T23:31:19.291Z,3.20
2022-09-19T23:33:48.359Z,6.40
2022-09-19T23:36:18.841Z,3.60
2022-09-19T23:38:49.571Z,3.60
2022-09-19T23:41:20.439Z,3.20
2022-09-19T23:43:51.684Z,3.20
2022-09-19T23:46:21.627Z,2.60
2022-09-19T23:48:51.106Z,4.20
2022-09-19T23:51:22.551Z,3.30
2022-09-19T23:53:52.349Z,2.80
2022-09-19T23:56:22.483Z,3.40
2022-09-19T23:58:51.382Z,2.90
